Time;durP1;ratioP1;P1;durP2;ratioP2;P2;SDS_P1;SDS_P2;PMS_P1;PMS_P2;Temp;Humidity;BMP_temperature;BMP_pressure;BME280_temperature;BME280_humidity;BME280_pressure;Samples;Min_cycle;Max_cycle;Signal;HPM_P1;HPM_P2
2021/10/25 00:00:48;;;;;;;7.38;3.92;;;;;;;27.00;28.21;101543.66;4147697;28;20103;-61
2021/10/25 00:02:50;;;;;;;7.13;4.40;;;;;;;27.14;28.59;101572.91;4147751;28;20541;-64
2021/10/25 00:04:53;;;;;;;7.10;4.35;;;;;;;27.02;28.23;101547.91;4148097;28;20049;-62
2021/10/25 00:06:55;;;;;;;6.50;4.03;;;;;;;27.13;28.38;101565.81;4147703;28;20108;-67
2021/10/25 00:08:57;;;;;;;7.03;4.13;;;;;;;27.04;28.49;101545.94;4148012;28;20068;-63
2021/10/25 00:11:00;;;;;;;7.80;4.30;;;;;;;27.15;28.20;101563.00;4147598;28;20034;-64
2021/10/25 00:13:02;;;;;;;8.93;4.75;;;;;;;27.12;28.56;101552.47;4147777;28;20046;-66
2021/10/25 00:15:05;;;;;;;6.47;4.13;;;;;;;27.15;28.41;101558.44;4147952;28;20045;-65
2021/10/25 00:17:07;;;;;;;7.88;4.38;;;;;;;27.14;28.41;101551.31;4147367;28;20046;-62
2021/10/25 00:19:11;;;;;;;7.63;4.35;;;;;;;27.15;28.38;101557.59;4147774;28;20521;-64
2021/10/25 00:21:13;;;;;;;7.60;4.43;;;;;;;26.85;28.37;101506.28;4147429;28;20096;-64
2021/10/25 00:23:15;;;;;;;8.75;4.63;;;;;;;27.03;28.61;101529.88;4147381;28;20038;-67
2021/10/25 00:25:17;;;;;;;6.72;4.65;;;;;;;26.98;28.51;101527.59;4147470;28;20046;-64
2021/10/25 00:27:19;;;;;;;7.93;4.45;;;;;;;26.98;28.17;101529.47;4147350;28;20420;-62
2021/10/25 00:29:22;;;;;;;8.38;4.80;;;;;;;26.89;28.36;101521.22;4147581;28;20501;-63
2021/10/25 00:31:24;;;;;;;8.32;4.50;;;;;;;26.78;28.34;101502.44;4147286;28;20092;-59
2021/10/25 00:33:27;;;;;;;7.43;4.57;;;;;;;26.82;28.42;101503.03;4162363;28;20049;-59
2021/10/25 00:35:29;;;;;;;7.13;4.47;;;;;;;27.11;28.55;101551.63;4147420;28;20424;-59
2021/10/25 00:37:31;;;;;;;7.18;4.40;;;;;;;26.93;28.30;101513.69;4147374;28;20401;-59
2021/10/25 00:39:34;;;;;;;7.72;4.63;;;;;;;27.08;28.32;101535.69;4147449;28;20046;-62
2021/10/25 00:41:36;;;;;;;7.22;4.00;;;;;;;27.12;28.23;101539.78;4147099;28;20510;-60
2021/10/25 00:43:39;;;;;;;6.82;4.32;;;;;;;27.08;28.19;101531.13;4147134;28;20074;-65
2021/10/25 00:45:41;;;;;;;7.80;4.53;;;;;;;27.12;28.26;101530.84;4147355;28;20580;-63
2021/10/25 00:47:43;;;;;;;6.50;4.35;;;;;;;27.00;28.23;101517.53;4147035;28;20046;-59
2021/10/25 00:49:46;;;;;;;6.57;4.07;;;;;;;26.91;28.31;101502.16;4147307;28;20046;-62
2021/10/25 00:51:49;;;;;;;7.00;4.57;;;;;;;27.01;28.34;101521.94;4147172;28;20046;-62
2021/10/25 00:53:51;;;;;;;7.55;4.63;;;;;;;27.08;28.38;101531.13;4147027;28;20042;-63
2021/10/25 00:55:53;;;;;;;7.50;4.40;;;;;;;26.91;28.32;101507.56;4147185;28;20045;-65
2021/10/25 00:57:56;;;;;;;7.63;4.18;;;;;;;27.10;28.25;101539.13;4146692;28;20053;-67
2021/10/25 00:59:58;;;;;;;6.70;4.10;;;;;;;26.96;28.23;101512.53;4147056;28;20054;-64
2021/10/25 01:02:00;;;;;;;7.13;4.38;;;;;;;27.05;28.32;101535.97;4147079;28;20050;-64
2021/10/25 01:04:03;;;;;;;7.72;4.72;;;;;;;26.75;28.34;101482.00;4146518;28;20046;-64
2021/10/25 01:06:06;;;;;;;6.57;4.53;;;;;;;26.93;28.54;101508.28;4147102;28;20057;-62
2021/10/25 01:08:09;;;;;;;7.07;4.15;;;;;;;26.98;28.43;101518.66;4146671;28;20041;-64
2021/10/25 01:10:11;;;;;;;6.38;4.10;;;;;;;27.00;28.47;101524.75;4146815;28;20060;-63
2021/10/25 01:12:15;;;;;;;7.28;4.72;;;;;;;27.11;28.35;101546.22;4146984;28;20042;-62
2021/10/25 01:14:18;;;;;;;7.00;4.43;;;;;;;26.98;28.31;101530.31;4146665;28;20045;-65
2021/10/25 01:16:20;;;;;;;6.72;4.28;;;;;;;26.85;28.31;101505.44;4146766;28;20068;-62
2021/10/25 01:18:23;;;;;;;6.88;4.32;;;;;;;27.08;28.09;101546.50;4146568;28;20064;-63
2021/10/25 01:20:28;;;;;;;6.47;4.30;;;;;;;26.85;28.11;101502.75;4146719;28;20620;-59
2021/10/25 01:22:31;;;;;;;6.80;4.35;;;;;;;26.91;28.24;101519.22;4146805;28;20056;-59
2021/10/25 01:24:33;;;;;;;6.75;4.25;;;;;;;27.04;28.49;101540.53;4145307;28;20442;-59
2021/10/25 01:26:35;;;;;;;6.78;4.53;;;;;;;26.92;28.20;101520.91;4146568;28;20061;-60
2021/10/25 01:28:40;;;;;;;6.60;4.20;;;;;;;27.10;28.31;101547.22;4146629;28;20049;-61
2021/10/25 01:30:42;;;;;;;6.80;4.75;;;;;;;27.10;28.38;101552.63;4146719;28;20065;-59
2021/10/25 01:32:45;;;;;;;7.65;4.47;;;;;;;26.92;28.33;101523.63;4146638;28;20045;-59
2021/10/25 01:34:47;;;;;;;7.07;4.53;;;;;;;26.72;27.92;101492.19;4146163;28;20046;-60
2021/10/25 01:36:50;;;;;;;6.38;3.90;;;;;;;27.03;28.37;101548.78;4146148;28;20058;-59
2021/10/25 01:38:52;;;;;;;6.38;3.83;;;;;;;27.10;28.35;101549.91;4145949;28;20042;-59
2021/10/25 01:40:55;;;;;;;8.48;4.32;;;;;;;27.09;28.20;101557.13;4146473;28;20045;-59
2021/10/25 01:42:57;;;;;;;7.22;4.22;;;;;;;26.96;28.28;101526.03;4145296;28;20050;-59
2021/10/25 01:44:59;;;;;;;6.63;4.30;;;;;;;27.07;28.31;101548.34;4146173;28;20119;-60
2021/10/25 01:47:01;;;;;;;7.72;4.60;;;;;;;26.89;28.10;101515.81;4146550;28;20186;-59
2021/10/25 01:49:05;;;;;;;5.97;3.85;;;;;;;27.04;28.04;101545.09;4146171;28;20042;-59
2021/10/25 01:51:08;;;;;;;7.82;4.30;;;;;;;26.81;27.91;101506.75;4146362;28;20406;-59
2021/10/25 01:53:10;;;;;;;6.95;4.38;;;;;;;26.92;28.03;101517.38;4146619;28;20054;-59
2021/10/25 01:55:13;;;;;;;6.18;4.20;;;;;;;26.87;28.03;101512.41;4145974;28;20042;-58
2021/10/25 01:57:16;;;;;;;6.97;4.30;;;;;;;27.09;28.02;101543.66;4146241;28;20104;-59
2021/10/25 01:59:18;;;;;;;7.47;4.47;;;;;;;26.89;28.20;101506.84;4145729;28;20066;-59
2021/10/25 02:01:22;;;;;;;7.20;4.35;;;;;;;26.83;28.38;101496.63;4146161;28;20041;-59
2021/10/25 02:03:25;;;;;;;6.60;4.20;;;;;;;27.08;28.18;101531.13;4146267;28;20045;-64
2021/10/25 02:05:27;;;;;;;6.25;3.72;;;;;;;27.04;28.08;101531.59;4145838;28;20085;-62
2021/10/25 02:07:30;;;;;;;6.63;3.85;;;;;;;26.87;28.07;101498.06;4146158;28;20536;-67
2021/10/25 02:09:32;;;;;;;6.47;4.30;;;;;;;26.70;28.19;101467.22;4145876;28;20050;-60
2021/10/25 02:11:34;;;;;;;6.13;4.18;;;;;;;27.08;28.07;101533.00;4145828;28;20073;-61
2021/10/25 02:13:37;;;;;;;6.32;3.63;;;;;;;26.86;28.44;101496.34;4146001;28;20050;-59
2021/10/25 02:15:39;;;;;;;6.80;4.05;;;;;;;26.76;28.16;101472.91;4145643;28;20046;-59
2021/10/25 02:17:42;;;;;;;5.85;4.18;;;;;;;27.03;28.25;101522.63;4145966;28;20049;-59
2021/10/25 02:19:46;;;;;;;6.10;3.95;;;;;;;26.94;28.16;101500.03;4145725;28;20042;-60
2021/10/25 02:21:48;;;;;;;6.32;3.88;;;;;;;27.04;28.21;101516.22;4140957;28;20050;-59
2021/10/25 02:23:51;;;;;;;7.60;4.70;;;;;;;26.98;28.10;101508.72;4129529;28;20057;-59
2021/10/25 02:25:53;;;;;;;7.35;4.20;;;;;;;27.10;28.20;101521.06;4138427;28;20049;-59
2021/10/25 02:27:55;;;;;;;7.05;4.30;;;;;;;27.06;28.19;101507.97;4145711;28;20050;-61
2021/10/25 02:29:57;;;;;;;6.45;3.90;;;;;;;26.74;28.07;101461.38;4160823;28;20045;-61
2021/10/25 02:32:00;;;;;;;7.65;4.07;;;;;;;26.87;27.96;101488.09;4144483;28;20061;-59
2021/10/25 02:34:02;;;;;;;7.25;4.32;;;;;;;26.81;28.40;101483.28;4145712;28;20038;-59
2021/10/25 02:36:07;;;;;;;6.47;3.92;;;;;;;26.86;28.31;101489.09;4145354;28;20042;-60
2021/10/25 02:38:09;;;;;;;7.25;4.07;;;;;;;27.03;28.02;101511.81;4145789;28;20045;-59
2021/10/25 02:40:11;;;;;;;7.22;4.30;;;;;;;27.09;28.20;101521.19;4145708;28;20046;-59
2021/10/25 02:42:14;;;;;;;7.07;3.80;;;;;;;26.90;28.18;101487.84;4144274;28;20049;-59
2021/10/25 02:44:17;;;;;;;6.28;3.97;;;;;;;26.83;28.18;101478.59;4145568;28;20111;-58
2021/10/25 02:46:19;;;;;;;6.68;4.03;;;;;;;26.89;28.10;101478.03;4145475;28;20049;-59
2021/10/25 02:48:21;;;;;;;6.15;3.88;;;;;;;26.94;28.11;101488.41;4145477;28;20053;-59
2021/10/25 02:50:25;;;;;;;8.27;4.00;;;;;;;26.75;28.31;101449.63;4145625;28;20115;-59
2021/10/25 02:52:27;;;;;;;6.68;3.90;;;;;;;26.90;28.10;101463.53;4145542;28;20045;-60
2021/10/25 02:54:29;;;;;;;6.28;3.92;;;;;;;27.09;27.97;101494.19;4145555;28;20046;-60
2021/10/25 02:56:31;;;;;;;6.25;3.50;;;;;;;27.10;28.03;101490.50;4145319;28;20048;-60
2021/10/25 02:58:34;;;;;;;6.40;3.95;;;;;;;27.05;28.11;101482.84;4145461;28;20054;-59
2021/10/25 03:00:36;;;;;;;6.25;4.05;;;;;;;26.92;27.97;101466.09;4145456;28;20056;-59
2021/10/25 03:02:39;;;;;;;7.78;3.97;;;;;;;26.72;28.03;101431.00;4145345;28;20050;-60
2021/10/25 03:04:42;;;;;;;7.55;4.00;;;;;;;27.01;28.06;101477.88;4145516;28;20042;-59
2021/10/25 03:06:44;;;;;;;6.60;3.95;;;;;;;26.91;28.23;101458.97;4145416;28;20057;-60
2021/10/25 03:08:46;;;;;;;6.55;3.80;;;;;;;26.85;28.25;101446.91;4145527;28;20050;-62
2021/10/25 03:10:48;;;;;;;6.07;4.15;;;;;;;27.00;27.91;101477.03;4145301;28;20580;-59
2021/10/25 03:12:51;;;;;;;7.07;3.85;;;;;;;27.01;28.17;101469.75;4145215;28;20056;-59
2021/10/25 03:14:54;;;;;;;5.97;3.75;;;;;;;26.91;28.01;101456.28;4145363;28;20417;-60
2021/10/25 03:16:57;;;;;;;6.50;3.97;;;;;;;27.05;27.86;101477.44;4145210;28;20136;-58
2021/10/25 03:18:59;;;;;;;5.70;3.35;;;;;;;26.87;27.79;101441.38;4145433;28;20586;-59
2021/10/25 03:21:01;;;;;;;5.95;3.95;;;;;;;26.89;28.09;101451.03;4145319;28;20065;-59
2021/10/25 03:23:03;;;;;;;6.50;3.85;;;;;;;26.91;28.07;101457.13;4145228;28;20037;-60
2021/10/25 03:25:07;;;;;;;5.63;3.88;;;;;;;26.98;27.88;101468.22;4145259;28;20049;-59
2021/10/25 03:27:09;;;;;;;6.93;3.75;;;;;;;26.73;28.24;101430.00;4143837;28;20442;-59
2021/10/25 03:29:11;;;;;;;6.47;4.10;;;;;;;27.05;28.26;101479.28;4144102;28;20050;-59
2021/10/25 03:31:16;;;;;;;6.65;3.85;;;;;;;26.90;28.12;101460.84;4145289;28;20406;-59
2021/10/25 03:33:19;;;;;;;6.47;3.67;;;;;;;26.89;28.16;101459.13;4145330;28;20056;-58
2021/10/25 03:35:21;;;;;;;6.13;4.03;;;;;;;26.88;28.46;101451.16;4145193;28;20056;-63
2021/10/25 03:37:24;;;;;;;5.80;3.72;;;;;;;27.03;28.29;101471.31;4144972;28;20112;-59
2021/10/25 03:39:31;;;;;;;5.65;3.72;;;;;;;27.03;28.06;101471.31;4145043;28;20042;-62
2021/10/25 03:41:37;;;;;;;6.53;3.65;;;;;;;26.90;28.33;101455.44;4145215;28;20038;-60
2021/10/25 03:43:46;;;;;;;7.13;3.50;;;;;;;26.76;28.47;101428.91;4144975;28;20045;-59
2021/10/25 03:46:06;;;;;;;5.60;3.53;;;;;;;26.81;28.12;101444.66;4145433;28;20046;-59
2021/10/25 03:48:22;;;;;;;6.03;3.45;;;;;;;27.00;28.42;101470.75;4145129;28;20045;-59
2021/10/25 03:50:28;;;;;;;5.65;3.50;;;;;;;26.79;28.31;101436.69;4135982;28;20046;-60
2021/10/25 03:52:40;;;;;;;5.47;3.28;;;;;;;26.79;28.45;101436.69;4145369;28;20046;-59
2021/10/25 03:54:56;;;;;;;6.03;3.70;;;;;;;27.08;28.30;101481.69;4144902;28;20057;-60
2021/10/25 04:13:30;;;;;;;5.50;3.17;;;;;;;27.00;28.52;101466.22;4147837;28;20132;-58
2021/10/25 04:29:15;;;;;;;5.57;3.40;;;;;;;26.78;28.87;101437.69;4147471;28;20049;-59
2021/10/25 04:31:17;;;;;;;5.60;3.20;;;;;;;26.95;28.83;101465.78;4147663;28;20509;-62
2021/10/25 04:33:20;;;;;;;5.18;3.25;;;;;;;26.92;28.89;101455.28;4147740;28;20041;-65
2021/10/25 04:35:22;;;;;;;6.13;3.17;;;;;;;26.78;28.87;101424.19;4147147;28;20096;-60
2021/10/25 04:37:24;;;;;;;6.13;3.03;;;;;;;27.10;29.00;101467.06;4147430;28;20053;-62
2021/10/25 04:39:27;;;;;;;6.47;3.20;;;;;;;26.99;28.85;101455.56;4147287;28;20129;-66
2021/10/25 04:41:29;;;;;;;5.25;3.00;;;;;;;27.01;28.82;101454.44;4143778;28;20038;-65
2021/10/25 04:43:31;;;;;;;4.85;2.88;;;;;;;26.92;28.97;101437.25;4147630;28;20041;-61
2021/10/25 04:45:33;;;;;;;5.90;3.03;;;;;;;26.76;28.64;101407.31;4146978;28;20636;-59
2021/10/25 04:47:36;;;;;;;4.90;2.80;;;;;;;27.12;29.01;101468.75;4147208;28;20045;-68
2021/10/25 04:49:38;;;;;;;5.28;2.95;;;;;;;26.88;28.96;101433.13;4147216;28;20096;-66
2021/10/25 04:51:40;;;;;;;5.10;2.90;;;;;;;26.99;29.18;101452.84;4146008;28;20104;-66
2021/10/25 04:53:42;;;;;;;5.10;2.78;;;;;;;27.11;28.78;101476.03;4147305;28;20144;-62
2021/10/25 04:55:44;;;;;;;4.80;2.85;;;;;;;26.88;29.00;101432.28;4146917;28;20042;-63
2021/10/25 04:57:47;;;;;;;4.60;2.70;;;;;;;27.10;29.19;101460.81;4146777;28;20513;-61
2021/10/25 04:59:49;;;;;;;5.72;2.70;;;;;;;26.81;28.88;101409.56;4147130;28;20057;-64
2021/10/25 05:01:52;;;;;;;4.53;2.60;;;;;;;26.88;29.21;101426.88;4146791;28;20599;-59
2021/10/25 05:03:54;;;;;;;5.00;2.45;;;;;;;26.77;28.95;101407.16;4147007;28;20046;-62
2021/10/25 05:05:57;;;;;;;5.78;2.75;;;;;;;27.01;29.09;101449.03;4146764;28;20092;-68
2021/10/25 05:07:59;;;;;;;4.53;2.58;;;;;;;26.94;29.14;101434.41;4146988;28;20413;-64
2021/10/25 05:10:03;;;;;;;4.97;2.72;;;;;;;27.02;29.03;101455.28;4146906;28;20050;-64
2021/10/25 05:12:10;;;;;;;4.50;2.65;;;;;;;26.90;29.09;101436.56;4145572;28;20050;-67
2021/10/25 05:14:12;;;;;;;5.07;2.67;;;;;;;26.78;29.27;101410.69;4145871;28;20536;-63
2021/10/25 05:16:14;;;;;;;4.82;2.50;;;;;;;26.92;29.21;101439.09;4146722;28;20041;-65
2021/10/25 05:18:16;;;;;;;5.13;2.47;;;;;;;27.09;29.32;101467.19;4146746;28;20046;-62
2021/10/25 05:20:18;;;;;;;5.18;2.60;;;;;;;26.97;29.16;101446.78;4146919;28;20046;-59
2021/10/25 05:22:21;;;;;;;4.55;2.20;;;;;;;26.93;29.14;101438.09;4146410;28;20053;-69
2021/10/25 05:24:24;;;;;;;5.40;2.72;;;;;;;26.94;29.11;101431.72;4146663;28;20046;-66
2021/10/25 05:26:26;;;;;;;5.20;2.70;;;;;;;26.89;29.23;101424.06;4146448;28;20537;-63
2021/10/25 05:28:29;;;;;;;4.25;2.28;;;;;;;27.05;29.56;101453.13;4135888;28;20176;-60
2021/10/25 05:30:31;;;;;;;5.53;2.45;;;;;;;27.06;29.48;101454.84;4146708;28;20057;-64
2021/10/25 05:32:33;;;;;;;4.50;2.28;;;;;;;26.74;29.35;101393.91;4146371;28;20069;-67
2021/10/25 05:34:35;;;;;;;4.68;2.15;;;;;;;26.93;29.45;101428.16;4146636;28;20042;-66
2021/10/25 05:36:37;;;;;;;4.32;2.40;;;;;;;26.76;29.25;101399.22;4146316;28;20060;-65
2021/10/25 05:38:40;;;;;;;3.85;2.08;;;;;;;26.94;29.23;101420.91;4146495;28;20046;-65
2021/10/25 05:40:42;;;;;;;4.38;2.08;;;;;;;26.94;29.54;101415.53;4146553;28;20046;-60
2021/10/25 05:42:45;;;;;;;4.47;2.53;;;;;;;26.92;29.50;101414.81;4146021;28;20041;-62
2021/10/25 05:44:47;;;;;;;4.75;2.30;;;;;;;26.73;29.59;101375.16;4146400;28;20050;-59
2021/10/25 05:46:49;;;;;;;5.53;2.80;;;;;;;26.87;29.28;101401.75;4146050;28;20050;-65
2021/10/25 05:48:53;;;;;;;4.18;2.17;;;;;;;26.84;29.66;101393.91;4146223;28;20046;-59
2021/10/25 05:50:55;;;;;;;4.65;2.45;;;;;;;26.90;29.42;101409.56;4146304;28;20120;-59
2021/10/25 05:52:58;;;;;;;4.72;2.33;;;;;;;26.78;29.56;101387.28;4146021;28;20042;-62
2021/10/25 05:55:00;;;;;;;4.32;2.40;;;;;;;26.97;29.45;101414.38;4146342;28;20045;-65
2021/10/25 05:57:02;;;;;;;5.05;2.50;;;;;;;27.02;29.27;101410.22;4146382;28;20406;-63
2021/10/25 05:59:05;;;;;;;5.43;2.60;;;;;;;27.26;29.33;101444.84;4142666;28;20060;-65
2021/10/25 06:01:12;;;;;;;5.00;2.38;;;;;;;27.10;29.28;101404.94;4146277;28;20057;-67
2021/10/25 06:03:21;;;;;;;4.10;2.13;;;;;;;27.10;29.09;101401.41;4145918;28;20042;-61
2021/10/25 06:05:27;;;;;;;4.90;2.53;;;;;;;27.17;28.85;101410.63;4146372;28;20045;-66
2021/10/25 06:07:29;;;;;;;5.97;2.80;;;;;;;27.41;28.88;101444.41;4145976;28;20042;-63
2021/10/25 06:09:34;;;;;;;4.45;2.35;;;;;;;27.18;28.81;101409.63;4146059;28;20510;-64
2021/10/25 06:11:37;;;;;;;4.38;2.30;;;;;;;27.18;28.86;101409.63;4146153;28;20069;-61
2021/10/25 06:13:42;;;;;;;5.50;2.70;;;;;;;27.18;29.18;101430.38;4145827;28;20073;-62
2021/10/25 06:15:44;;;;;;;4.80;2.60;;;;;;;27.10;29.08;101413.03;4146239;28;20056;-66
2021/10/25 06:17:56;;;;;;;5.70;2.70;;;;;;;26.96;29.34;101399.16;4146017;28;20112;-64
2021/10/25 06:19:58;;;;;;;4.47;2.28;;;;;;;27.13;29.30;101436.19;4145960;28;20045;-68
2021/10/25 06:22:00;;;;;;;5.30;2.53;;;;;;;27.03;29.78;101430.81;4145858;28;20042;-59
2021/10/25 06:24:03;;;;;;;4.97;2.42;;;;;;;26.81;29.61;101407.72;4145167;28;20049;-59
2021/10/25 06:26:05;;;;;;;5.53;2.70;;;;;;;26.82;29.52;101404.03;4145973;28;20045;-66
2021/10/25 06:28:08;;;;;;;4.50;2.75;;;;;;;26.80;29.83;101407.88;4145758;28;20076;-64
2021/10/25 06:30:10;;;;;;;4.63;2.60;;;;;;;27.04;29.79;101458.69;4145824;28;20046;-63
2021/10/25 06:32:13;;;;;;;5.15;2.65;;;;;;;26.71;29.64;101396.03;4145876;28;20683;-66
2021/10/25 06:34:24;;;;;;;6.63;3.00;;;;;;;26.69;29.68;101401.59;4145438;28;20525;-61
2021/10/25 06:36:26;;;;;;;4.70;2.43;;;;;;;26.81;29.79;101437.41;4145808;28;20414;-62
2021/10/25 06:38:32;;;;;;;5.05;2.53;;;;;;;26.82;29.45;101436.41;4145590;28;20046;-62
2021/10/25 06:40:34;;;;;;;5.13;2.67;;;;;;;26.76;29.74;101424.34;4145845;28;20050;-59
2021/10/25 06:42:36;;;;;;;6.03;2.90;;;;;;;26.69;29.73;101425.03;4145795;28;20042;-62
2021/10/25 06:45:00;;;;;;;5.30;2.78;;;;;;;27.00;29.46;101466.22;4145325;28;20096;-59
2021/10/25 06:47:02;;;;;;;5.88;2.97;;;;;;;26.88;30.03;101451.16;4145820;28;20096;-62
2021/10/25 06:49:04;;;;;;;4.80;2.65;;;;;;;26.89;29.78;101458.28;4145608;28;20042;-59
2021/10/25 06:51:06;;;;;;;5.60;2.92;;;;;;;26.81;29.96;101453.59;4145712;28;20045;-65
2021/10/25 06:53:09;;;;;;;5.80;3.10;;;;;;;26.87;29.89;101460.28;4145696;28;20069;-68
2021/10/25 06:55:11;;;;;;;6.03;3.10;;;;;;;26.88;29.78;101461.97;4145383;28;20588;-65
2021/10/25 06:57:13;;;;;;;5.13;3.10;;;;;;;26.70;29.83;101429.44;4145497;28;20050;-61
2021/10/25 06:59:16;;;;;;;5.22;2.55;;;;;;;26.91;29.69;101465.22;4145317;28;20426;-69
2021/10/25 07:01:18;;;;;;;4.97;2.47;;;;;;;26.75;29.89;101435.28;4145449;28;20045;-66
2021/10/25 07:03:20;;;;;;;5.22;2.80;;;;;;;27.01;29.86;101472.47;4145683;28;20455;-65
2021/10/25 07:05:23;;;;;;;5.93;3.15;;;;;;;26.76;29.94;101437.84;4145455;28;20053;-61
2021/10/25 07:07:26;;;;;;;5.22;2.97;;;;;;;26.85;29.90;101452.31;4145547;28;20054;-66
2021/10/25 07:09:29;;;;;;;5.45;2.60;;;;;;;26.88;29.82;101457.44;4145243;28;20057;-60
2021/10/25 07:11:32;;;;;;;4.68;2.70;;;;;;;26.86;29.63;101451.31;4145391;28;20082;-65
2021/10/25 07:13:36;;;;;;;6.82;3.13;;;;;;;26.89;29.60;101460.97;4145589;28;20053;-62
2021/10/25 07:15:46;;;;;;;6.10;2.75;;;;;;;27.09;29.77;101495.03;4145585;28;20053;-60
2021/10/25 08:05:56;;;;;;;6.00;2.72;;;;;;;26.97;29.89;101493.50;4148091;28;20041;-63
2021/10/25 08:08:08;;;;;;;5.55;2.70;;;;;;;27.12;30.01;101520.06;4147832;28;20057;-62
2021/10/25 08:10:26;;;;;;;5.35;2.50;;;;;;;27.17;29.93;101536.66;4131771;28;20080;-59
2021/10/25 08:12:30;;;;;;;5.70;2.78;;;;;;;27.13;30.21;101522.59;4140912;28;20078;-60
2021/10/25 08:14:36;;;;;;;5.47;2.60;;;;;;;27.09;30.10;101519.34;4147654;28;20053;-63
2021/10/25 08:16:50;;;;;;;6.22;2.83;;;;;;;26.87;30.00;101476.47;4147649;28;20041;-65
2021/10/25 08:19:09;;;;;;;5.13;2.88;;;;;;;26.99;30.05;101498.75;4147607;28;20034;-68
2021/10/25 08:21:11;;;;;;;6.70;2.90;;;;;;;27.00;29.94;101500.44;4147745;28;20045;-65
2021/10/25 08:23:13;;;;;;;5.28;2.72;;;;;;;27.06;29.92;101499.88;4147305;28;20042;-69
2021/10/25 08:25:17;;;;;;;6.28;2.53;;;;;;;27.06;30.29;101507.97;4147626;28;20045;-59
2021/10/25 08:27:20;;;;;;;6.45;2.80;;;;;;;27.00;30.21;101489.66;4147489;28;20046;-64
2021/10/25 08:29:23;;;;;;;6.47;2.88;;;;;;;27.19;29.96;101519.31;4147579;28;20038;-63
2021/10/25 08:31:28;;;;;;;4.95;2.80;;;;;;;27.11;30.06;101497.63;4147551;28;20046;-61
2021/10/25 08:40:17;;;;;;;6.15;3.30;;;;;;;26.87;29.97;101455.72;4147267;28;20049;-61
2021/10/25 08:42:30;;;;;;;4.93;2.75;;;;;;;26.97;30.12;101466.50;4147549;28;20560;-60
2021/10/25 08:44:33;;;;;;;5.32;2.80;;;;;;;26.88;30.33;101453.84;4146809;28;20053;-59
2021/10/25 08:46:35;;;;;;;6.50;2.83;;;;;;;27.03;30.46;101476.72;4147181;28;20527;-65
2021/10/25 08:48:42;;;;;;;5.90;2.70;;;;;;;27.16;30.16;101492.63;4146931;28;20452;-63
2021/10/25 08:50:44;;;;;;;5.40;2.80;;;;;;;27.18;30.08;101497.88;4147288;28;20080;-63
2021/10/25 08:52:48;;;;;;;6.68;2.90;;;;;;;27.26;29.96;101506.13;4147099;28;20057;-63
2021/10/25 08:54:51;;;;;;;5.15;2.67;;;;;;;27.11;30.08;101484.13;4147075;28;20049;-67
2021/10/25 08:56:56;;;;;;;5.85;2.65;;;;;;;27.12;30.31;101487.66;4147165;28;20046;-60
2021/10/25 08:59:00;;;;;;;5.50;2.75;;;;;;;27.13;30.34;101478.56;4146887;28;20580;-67
2021/10/25 09:01:03;;;;;;;7.55;3.03;;;;;;;27.21;29.96;101493.03;4147160;28;20053;-63
2021/10/25 09:03:06;;;;;;;6.43;2.80;;;;;;;26.98;30.11;101454.72;4145909;28;20628;-59
2021/10/25 09:05:11;;;;;;;7.30;2.95;;;;;;;27.27;30.35;101505.97;4146046;28;20092;-63
2021/10/25 09:07:13;;;;;;;5.28;2.80;;;;;;;27.21;30.07;101498.44;4147041;28;20052;-60
2021/10/25 09:09:15;;;;;;;6.25;3.00;;;;;;;27.25;30.23;101499.84;4146661;28;20080;-62
2021/10/25 09:11:18;;;;;;;5.38;2.88;;;;;;;27.13;30.06;101481.25;4147003;28;20045;-60
2021/10/25 09:13:23;;;;;;;5.30;2.70;;;;;;;27.24;29.97;101491.88;4146672;28;20037;-61
2021/10/25 09:15:27;;;;;;;7.93;3.10;;;;;;;27.08;30.11;101452.84;4146426;28;20050;-66
2021/10/25 09:17:39;;;;;;;5.70;2.97;;;;;;;27.02;30.38;101444.47;4146956;28;20395;-63
2021/10/25 09:19:45;;;;;;;5.30;2.75;;;;;;;26.99;30.37;101442.94;4146493;28;20038;-61
2021/10/25 09:21:49;;;;;;;6.00;3.20;;;;;;;27.31;30.19;101495.72;4146691;28;20061;-65
2021/10/25 09:23:51;;;;;;;6.32;2.90;;;;;;;27.31;30.13;101493.00;4145425;28;20042;-59
2021/10/25 09:26:07;;;;;;;4.90;2.90;;;;;;;27.17;30.27;101463.75;4146443;28;20050;-59
2021/10/25 09:28:15;;;;;;;5.97;2.95;;;;;;;27.05;30.21;101441.47;4146762;28;20141;-67
2021/10/25 09:30:22;;;;;;;6.45;2.80;;;;;;;27.15;30.09;101458.53;4146290;28;20490;-64
2021/10/25 09:32:33;;;;;;;7.70;2.90;;;;;;;27.12;30.42;101448.00;4146590;28;20361;-61
2021/10/25 09:34:45;;;;;;;6.40;2.95;;;;;;;27.23;30.29;101474.84;4146442;28;20422;-60
2021/10/25 09:36:52;;;;;;;6.30;3.05;;;;;;;27.14;30.38;101462.22;4146508;28;20042;-64
2021/10/25 09:46:01;;;;;;;5.47;2.70;;;;;;;27.11;30.43;101451.72;4142103;28;20054;-64
2021/10/25 09:50:50;;;;;;;5.70;2.70;;;;;;;27.15;30.35;101461.22;4146188;28;20120;-65
2021/10/25 09:52:52;;;;;;;5.30;2.80;;;;;;;27.05;30.27;101431.53;4146522;28;20042;-62
2021/10/25 09:54:59;;;;;;;5.10;2.50;;;;;;;27.05;30.47;101431.53;4146206;28;20046;-66
2021/10/25 09:57:08;;;;;;;4.55;2.75;;;;;;;27.22;30.63;101465.03;4142935;28;20049;-59
2021/10/25 10:01:23;;;;;;;5.63;2.92;;;;;;;27.25;30.54;101472.84;4146219;28;20037;-67
2021/10/25 10:03:26;;;;;;;5.82;2.60;;;;;;;27.26;30.59;101474.53;4146160;28;20041;-65
2021/10/25 10:05:35;;;;;;;5.55;2.88;;;;;;;27.05;30.74;101436.06;4145959;28;20050;-59
2021/10/25 10:07:42;;;;;;;7.05;2.78;;;;;;;27.36;30.37;101479.06;4145944;28;20053;-64
2021/10/25 10:09:45;;;;;;;5.32;2.88;;;;;;;27.15;30.64;101452.28;4146084;28;20050;-62
2021/10/25 10:11:48;;;;;;;7.05;2.95;;;;;;;27.27;30.33;101473.53;4145645;28;20056;-61
2021/10/25 10:13:50;;;;;;;5.55;2.80;;;;;;;27.26;30.54;101473.69;4145966;28;20050;-63
2021/10/25 10:15:55;;;;;;;4.93;2.60;;;;;;;27.20;30.68;101455.38;4145728;28;20045;-67
2021/10/25 10:18:20;;;;;;;4.38;2.40;;;;;;;27.48;30.56;101506.81;4145791;28;20052;-65
2021/10/25 10:20:35;;;;;;;5.25;2.72;;;;;;;27.37;30.39;101497.00;4145743;28;20053;-60
2021/10/25 10:22:41;;;;;;;5.13;2.70;;;;;;;27.19;30.51;101465.31;4145409;28;20054;-61
2021/10/25 10:24:48;;;;;;;6.15;3.08;;;;;;;27.13;30.33;101455.09;4145842;28;20049;-70
2021/10/25 10:26:55;;;;;;;6.30;2.58;;;;;;;27.45;30.67;101505.25;4145310;28;20501;-60
2021/10/25 10:29:17;;;;;;;5.72;3.08;;;;;;;27.11;30.48;101446.31;4145594;28;20068;-62
2021/10/25 10:31:24;;;;;;;5.47;2.90;;;;;;;27.12;30.81;101442.59;4145332;28;20076;-68
2021/10/25 10:33:54;;;;;;;5.68;3.13;;;;;;;27.36;30.61;101481.78;4145534;28;20425;-69
2021/10/25 10:36:13;;;;;;;6.65;2.90;;;;;;;27.18;30.92;101451.97;4145781;28;20500;-61
2021/10/25 10:38:15;;;;;;;4.43;2.95;;;;;;;27.42;30.73;101503.66;4144642;28;20058;-66
2021/10/25 10:40:18;;;;;;;5.68;2.97;;;;;;;27.36;30.90;101495.28;4145602;28;20046;-60
2021/10/25 10:42:28;;;;;;;6.70;3.00;;;;;;;27.19;30.86;101459.06;4145391;28;20399;-66
2021/10/25 10:44:30;;;;;;;5.57;2.85;;;;;;;27.31;30.62;101484.91;4145587;28;20564;-62
2021/10/25 10:46:50;;;;;;;5.47;3.17;;;;;;;27.56;30.88;101526.69;4145526;28;20053;-65
2021/10/25 10:48:56;;;;;;;6.88;3.17;;;;;;;27.47;30.86;101510.50;4145704;28;20154;-59
2021/10/25 10:51:05;;;;;;;6.38;3.00;;;;;;;27.41;30.74;101502.00;4145584;28;20482;-68
2021/10/25 10:53:11;;;;;;;5.60;3.20;;;;;;;27.36;30.52;101492.59;4145120;28;20386;-66
2021/10/25 10:55:25;;;;;;;6.13;2.72;;;;;;;27.37;30.96;101491.59;4145453;28;20042;-65
2021/10/25 10:57:59;;;;;;;5.82;3.17;;;;;;;27.26;30.79;101484.50;4145410;28;20430;-64
2021/10/25 11:00:03;;;;;;;6.25;3.33;;;;;;;27.41;30.88;101512.81;4138749;28;20049;-62
2021/10/25 11:02:17;;;;;;;7.47;3.47;;;;;;;27.38;30.94;101506.81;4145362;28;20057;-60
2021/10/25 11:04:31;;;;;;;5.47;3.00;;;;;;;27.21;30.94;101478.69;4142543;28;20049;-65
2021/10/25 11:06:35;;;;;;;6.68;2.97;;;;;;;27.16;31.06;101480.97;4145759;28;20046;-68
2021/10/25 11:08:40;;;;;;;7.28;3.13;;;;;;;27.26;30.76;101498.84;4145179;28;20057;-64
2021/10/25 11:10:46;;;;;;;5.88;2.65;;;;;;;27.30;30.91;101501.28;4146245;28;20061;-64
2021/10/25 11:12:48;;;;;;;6.75;3.13;;;;;;;27.10;31.04;101460.81;4148433;28;20046;-63
2021/10/25 11:14:52;;;;;;;5.30;2.92;;;;;;;27.27;30.99;101489.75;4148475;28;20041;-66